createdAt,value
2019-03-11T00:00:39.229Z,100190.27
2019-03-11T00:03:07.884Z,100185.56
2019-03-11T00:05:36.472Z,100189.19
2019-03-11T00:08:05.359Z,100187.29
2019-03-11T00:10:34.092Z,100189.37
2019-03-11T00:13:02.680Z,100181.53
2019-03-11T00:15:31.335Z,100177.67
2019-03-11T00:17:59.952Z,100173.17
2019-03-11T00:20:28.509Z,100180.77
2019-03-11T00:22:57.080Z,100174.42
2019-03-11T00:25:25.541Z,100167.69
2019-03-11T00:27:53.983Z,100164.25
2019-03-11T00:30:22.576Z,100161.59
2019-03-11T00:32:51.097Z,100158.73
2019-03-11T00:35:19.710Z,100155.03
2019-03-11T00:37:48.228Z,100157.39
2019-03-11T00:40:16.905Z,100149.81
2019-03-11T00:42:45.425Z,100155.50
2019-03-11T00:45:15.246Z,100160.80
2019-03-11T00:47:43.854Z,100152.85
2019-03-11T00:50:13.461Z,100155.28
2019-03-11T00:52:42.254Z,100160.22
2019-03-11T00:55:12.111Z,100174.33
2019-03-11T00:57:40.647Z,100183.89
2019-03-11T01:00:15.018Z,100182.56
2019-03-11T01:02:43.554Z,100189.47
2019-03-11T01:05:12.076Z,100206.98
2019-03-11T01:07:40.624Z,100194.19
2019-03-11T01:10:09.906Z,100197.65
2019-03-11T01:12:38.515Z,100181.53
2019-03-11T01:15:09.657Z,100185.72
2019-03-11T01:17:38.254Z,100181.23
2019-03-11T01:20:09.137Z,100165.61
2019-03-11T01:22:37.681Z,100156.59
2019-03-11T01:25:08.464Z,100165.27
2019-03-11T01:27:37.013Z,100150.59
2019-03-11T01:30:14.094Z,100156.16
2019-03-11T01:32:42.619Z,100152.64
2019-03-11T01:35:11.597Z,100149.41
2019-03-11T01:37:40.142Z,100147.67
2019-03-11T01:40:16.928Z,100151.11
2019-03-11T01:42:45.507Z,100146.26
2019-03-11T01:45:15.703Z,100147.19
2019-03-11T01:47:44.142Z,100140.84
2019-03-11T01:50:14.131Z,100135.61
2019-03-11T01:52:42.863Z,100139.58
2019-03-11T01:55:12.843Z,100129.33
2019-03-11T01:57:41.442Z,100146.42
2019-03-11T02:00:20.224Z,100145.30
2019-03-11T02:02:48.688Z,100158.76
2019-03-11T02:05:17.272Z,100160.61
2019-03-11T02:07:45.723Z,100158.74
2019-03-11T02:10:18.303Z,100153.70
2019-03-11T02:12:46.819Z,100143.81
2019-03-11T02:15:19.755Z,100137.53
2019-03-11T02:17:48.278Z,100127.05
2019-03-11T02:20:17.869Z,100143.63
2019-03-11T02:22:46.384Z,100141.63
2019-03-11T02:25:15.467Z,100131.89
2019-03-11T02:27:44.050Z,100136.27
2019-03-11T02:30:15.019Z,100131.53
2019-03-11T02:32:43.615Z,100142.20
2019-03-11T02:35:12.385Z,100131.89
2019-03-11T02:37:40.972Z,100130.56
2019-03-11T02:40:14.564Z,100140.30
2019-03-11T02:42:43.072Z,100135.07
2019-03-11T02:45:11.784Z,100138.39
2019-03-11T02:47:40.370Z,100140.36
2019-03-11T02:50:10.703Z,100144.89
2019-03-11T02:52:39.279Z,100147.15
2019-03-11T02:55:08.028Z,100146.00
2019-03-11T02:57:36.767Z,100147.59
2019-03-11T03:00:08.465Z,100141.72
2019-03-11T03:02:44.629Z,100151.72
2019-03-11T03:05:17.713Z,100156.78
2019-03-11T03:07:46.227Z,100153.62
2019-03-11T03:10:14.986Z,100148.20
2019-03-11T03:12:43.499Z,100148.94
2019-03-11T03:15:12.140Z,100145.13
2019-03-11T03:17:40.718Z,100138.69
2019-03-11T03:20:16.891Z,100141.53
2019-03-11T03:22:45.445Z,100146.69
2019-03-11T03:25:14.752Z,100138.98
2019-03-11T03:27:43.509Z,100147.02
2019-03-11T03:30:15.044Z,100143.13
2019-03-11T03:32:43.663Z,100137.07
2019-03-11T03:35:12.164Z,100143.39
2019-03-11T03:37:40.762Z,100144.81
2019-03-11T03:40:12.006Z,100138.73
2019-03-11T03:42:40.691Z,100147.22
2019-03-11T03:45:20.806Z,100138.52
2019-03-11T03:47:49.692Z,100134.86
2019-03-11T03:50:18.503Z,100123.31
2019-03-11T03:52:47.112Z,100128.14
2019-03-11T03:55:15.815Z,100133.44
2019-03-11T03:57:44.416Z,100123.65
2019-03-11T04:00:13.830Z,100134.76
2019-03-11T04:02:42.393Z,100132.28
2019-03-11T04:05:12.388Z,100138.52
2019-03-11T04:07:40.969Z,100139.84
2019-03-11T04:10:17.407Z,100139.84
2019-03-11T04:12:46.395Z,100140.61
2019-03-11T04:15:15.963Z,100138.49
2019-03-11T04:17:44.884Z,100135.02
2019-03-11T04:20:19.136Z,100136.41
2019-03-11T04:22:47.662Z,100141.16
2019-03-11T04:25:16.247Z,100144.73
2019-03-11T04:27:44.979Z,100152.39
2019-03-11T04:30:16.735Z,100157.91
2019-03-11T04:32:45.341Z,100153.38
2019-03-11T04:35:13.950Z,100150.93
2019-03-11T04:37:42.624Z,100155.59
2019-03-11T04:40:14.083Z,100134.70
2019-03-11T04:42:42.774Z,100145.69
2019-03-11T04:45:13.463Z,100148.58
2019-03-11T04:47:42.048Z,100144.02
2019-03-11T04:50:13.104Z,100152.30
2019-03-11T04:52:41.585Z,100157.69
2019-03-11T04:55:11.924Z,100161.43
2019-03-11T04:57:52.470Z,100155.48
2019-03-11T05:00:23.160Z,100165.67
2019-03-11T05:02:51.632Z,100169.73
2019-03-11T05:05:20.143Z,100158.42
2019-03-11T05:07:48.681Z,100161.27
2019-03-11T05:10:17.270Z,100157.12
2019-03-11T05:12:45.894Z,100163.21
2019-03-11T05:15:15.199Z,100162.42
2019-03-11T05:17:44.039Z,100163.38
2019-03-11T05:20:14.590Z,100176.45
2019-03-11T05:22:43.502Z,100170.42
2019-03-11T05:25:13.412Z,100155.30
2019-03-11T05:27:41.921Z,100169.69
2019-03-11T05:30:13.602Z,100180.27
2019-03-11T05:32:42.209Z,100170.25
2019-03-11T05:35:10.791Z,100164.16
2019-03-11T05:37:39.307Z,100177.23
2019-03-11T05:40:10.695Z,100177.06
2019-03-11T05:42:39.141Z,100182.75
2019-03-11T05:45:10.405Z,100177.06
2019-03-11T05:47:38.942Z,100187.45
2019-03-11T05:50:15.220Z,100176.08
2019-03-11T05:52:44.061Z,100181.37
2019-03-11T05:55:13.475Z,100183.48
2019-03-11T05:57:42.062Z,100188.97
2019-03-11T06:00:20.067Z,100186.72
2019-03-11T06:02:48.599Z,100194.09
2019-03-11T06:05:17.095Z,100192.55
2019-03-11T06:07:45.644Z,100210.85
2019-03-11T06:10:15.263Z,100210.36
2019-03-11T06:12:43.816Z,100200.92
2019-03-11T06:15:13.800Z,100213.58
2019-03-11T06:17:42.501Z,100201.00
2019-03-11T06:20:31.180Z,100210.97
2019-03-11T06:23:00.829Z,100225.83
2019-03-11T06:25:29.448Z,100229.09
2019-03-11T06:27:57.996Z,100233.37
2019-03-11T06:30:26.571Z,100245.15
2019-03-11T06:32:55.206Z,100252.99
2019-03-11T06:35:23.776Z,100253.45
2019-03-11T06:37:52.360Z,100241.73
2019-03-11T06:40:20.904Z,100248.19
2019-03-11T06:42:49.419Z,100253.47
2019-03-11T06:45:17.941Z,100245.91
2019-03-11T06:47:46.454Z,100254.15
2019-03-11T06:50:16.265Z,100261.86
2019-03-11T06:52:44.848Z,100253.23
2019-03-11T06:55:13.836Z,100259.91
2019-03-11T06:57:42.347Z,100248.47
2019-03-11T07:00:16.275Z,100249.73
2019-03-11T07:02:44.098Z,100247.38
2019-03-11T07:05:19.969Z,100260.45
2019-03-11T07:07:43.089Z,100262.22
2019-03-11T07:10:16.388Z,100256.12
2019-03-11T07:12:44.972Z,100257.75
2019-03-11T07:15:15.658Z,100261.00
2019-03-11T07:17:44.448Z,100254.78
2019-03-11T07:20:15.242Z,100257.17
2019-03-11T07:22:43.843Z,100259.59
2019-03-11T07:25:12.530Z,100269.05
2019-03-11T07:27:41.060Z,100269.13
2019-03-11T07:30:17.889Z,100273.24
2019-03-11T07:32:46.501Z,100268.81
2019-03-11T07:35:15.086Z,100281.80
2019-03-11T07:37:43.723Z,100280.04
2019-03-11T07:40:16.493Z,100275.06
2019-03-11T07:42:45.172Z,100272.74
2019-03-11T07:45:15.165Z,100278.69
2019-03-11T07:47:43.682Z,100269.48
2019-03-11T07:50:14.292Z,100284.13
2019-03-11T07:52:42.809Z,100282.56
2019-03-11T07:55:14.787Z,100294.86
2019-03-11T07:57:43.372Z,100297.50
2019-03-11T08:00:14.402Z,100300.21
2019-03-11T08:02:42.843Z,100308.24
2019-03-11T08:05:11.445Z,100300.16
2019-03-11T08:07:39.974Z,100299.03
2019-03-11T08:10:19.906Z,100300.59
2019-03-11T08:12:48.488Z,100313.83
2019-03-11T08:15:17.476Z,100311.39
2019-03-11T08:17:46.191Z,100321.05
2019-03-11T08:20:15.587Z,100319.17
2019-03-11T08:22:44.222Z,100336.00
2019-03-11T08:25:13.907Z,100337.39
2019-03-11T08:27:42.623Z,100337.39
2019-03-11T08:30:22.231Z,100338.71
2019-03-11T08:32:50.942Z,100350.86
2019-03-11T08:35:19.412Z,100341.66
2019-03-11T08:37:47.957Z,100329.39
2019-03-11T08:40:18.408Z,100332.03
2019-03-11T08:42:47.030Z,100339.63
2019-03-11T08:45:17.810Z,100351.06
2019-03-11T08:47:46.397Z,100354.31
2019-03-11T08:50:15.889Z,100359.37
2019-03-11T08:52:44.614Z,100354.39
2019-03-11T08:55:13.492Z,100361.01
2019-03-11T08:57:42.007Z,100354.55
2019-03-11T09:00:18.547Z,100356.03
2019-03-11T09:02:47.163Z,100368.10
2019-03-11T09:05:17.226Z,100361.48
2019-03-11T09:07:45.834Z,100376.44
2019-03-11T09:10:18.528Z,100378.93
2019-03-11T09:12:47.158Z,100371.04
2019-03-11T09:15:22.382Z,100374.53
2019-03-11T09:17:51.075Z,100381.38
2019-03-11T09:20:19.962Z,100378.01
2019-03-11T09:22:48.478Z,100374.08
2019-03-11T09:25:25.161Z,100379.64
2019-03-11T09:27:53.850Z,100385.65
2019-03-11T09:30:23.241Z,100390.45
2019-03-11T09:32:51.930Z,100397.82
2019-03-11T09:35:20.780Z,100407.60
2019-03-11T09:37:49.477Z,100400.58
2019-03-11T09:40:20.126Z,100405.12
2019-03-11T09:42:48.714Z,100412.67
2019-03-11T09:45:18.210Z,100393.26
2019-03-11T09:47:47.143Z,100407.27
2019-03-11T09:50:16.575Z,100403.19
2019-03-11T09:52:45.157Z,100404.92
2019-03-11T09:55:21.220Z,100412.36
2019-03-11T09:57:49.823Z,100410.30
2019-03-11T10:00:29.365Z,100404.89
2019-03-11T10:02:57.947Z,100415.62
2019-03-11T10:05:26.641Z,100408.88
2019-03-11T10:07:55.373Z,100418.24
2019-03-11T10:10:25.870Z,100411.14
2019-03-11T10:12:54.556Z,100423.95
2019-03-11T10:15:23.547Z,100414.27
2019-03-11T10:17:52.177Z,100415.70
2019-03-11T10:20:21.385Z,100421.08
2019-03-11T10:22:49.906Z,100433.95
2019-03-11T10:25:19.520Z,100440.55
2019-03-11T10:27:48.200Z,100442.11
2019-03-11T10:30:21.343Z,100450.03
2019-03-11T10:32:49.967Z,100453.89
2019-03-11T10:35:39.692Z,100452.48
2019-03-11T10:38:08.241Z,100461.27
2019-03-11T10:40:37.310Z,100465.57
2019-03-11T10:43:06.320Z,100463.38
2019-03-11T10:45:35.147Z,100459.56
2019-03-11T10:48:04.031Z,100459.23
2019-03-11T10:50:33.291Z,100452.20
2019-03-11T10:53:02.127Z,100445.22
2019-03-11T10:55:32.184Z,100439.39
2019-03-11T10:58:01.039Z,100442.27
2019-03-11T11:00:33.589Z,100462.50
2019-03-11T11:03:03.693Z,100446.61
2019-03-11T11:05:32.634Z,100467.61
2019-03-11T11:08:01.502Z,100454.41
2019-03-11T11:10:30.210Z,100463.48
2019-03-11T11:12:58.967Z,100475.14
2019-03-11T11:15:29.419Z,100483.86
2019-03-11T11:17:59.082Z,100472.51
2019-03-11T11:20:27.895Z,100480.19
2019-03-11T11:22:57.667Z,100485.28
2019-03-11T11:25:28.383Z,100441.88
2019-03-11T11:27:57.554Z,100488.28
2019-03-11T11:30:27.563Z,100498.73
2019-03-11T11:32:56.811Z,100501.13
2019-03-11T11:35:25.825Z,100497.05
2019-03-11T11:37:57.109Z,100509.64
2019-03-11T11:40:30.263Z,100518.07
2019-03-11T11:42:59.409Z,100521.37
2019-03-11T11:45:31.991Z,100535.19
2019-03-11T11:48:00.975Z,100522.66
2019-03-11T11:50:29.720Z,100528.78
2019-03-11T11:52:58.421Z,100527.58
2019-03-11T11:55:28.071Z,100522.90
2019-03-11T11:57:57.016Z,100538.81
2019-03-11T12:00:32.067Z,100523.69
2019-03-11T12:03:01.010Z,100534.19
2019-03-11T12:05:30.152Z,100538.34
2019-03-11T12:07:59.101Z,100527.89
2019-03-11T12:10:29.361Z,100527.38
2019-03-11T12:12:58.476Z,100525.22
2019-03-11T12:15:27.449Z,100532.14
2019-03-11T12:17:56.033Z,100532.57
2019-03-11T12:20:30.915Z,100532.15
2019-03-11T12:23:00.196Z,100537.20
2019-03-11T12:25:29.206Z,100498.03
2019-03-11T12:27:58.616Z,100517.69
2019-03-11T12:30:30.137Z,100515.64
2019-03-11T12:32:59.289Z,100510.59
2019-03-11T12:35:28.779Z,100530.11
2019-03-11T12:37:57.347Z,100527.59
2019-03-11T12:40:26.186Z,100514.98
2019-03-11T12:42:55.260Z,100534.95
2019-03-11T12:45:25.129Z,100536.91
2019-03-11T12:47:54.020Z,100528.78
2019-03-11T12:50:25.316Z,100536.20
2019-03-11T12:52:53.904Z,100527.25
2019-03-11T12:55:22.609Z,100529.95
2019-03-11T12:57:51.404Z,100544.55
2019-03-11T13:00:24.259Z,100533.95
2019-03-11T13:02:54.967Z,100533.25
2019-03-11T13:05:23.873Z,100537.94
2019-03-11T13:07:52.583Z,100535.61
2019-03-11T13:10:25.530Z,100545.81
2019-03-11T13:12:54.315Z,100534.99
2019-03-11T13:15:24.027Z,100546.12
2019-03-11T13:17:53.151Z,100561.83
2019-03-11T13:20:25.147Z,100550.52
2019-03-11T13:22:54.340Z,100557.23
2019-03-11T13:25:22.923Z,100570.65
2019-03-11T13:27:52.008Z,100605.55
2019-03-11T13:30:20.695Z,100602.48
2019-03-11T13:32:49.559Z,100585.84
2019-03-11T13:35:18.318Z,100604.77
2019-03-11T13:37:47.259Z,100616.83
2019-03-11T13:40:17.172Z,100607.33
2019-03-11T13:42:45.889Z,100607.84
2019-03-11T13:45:16.788Z,100588.28
2019-03-11T13:47:45.906Z,100604.64
2019-03-11T13:50:20.885Z,100598.06
2019-03-11T13:52:49.768Z,100613.34
2019-03-11T13:55:18.551Z,100612.88
2019-03-11T13:57:48.198Z,100613.37
2019-03-11T14:00:19.109Z,100612.46
2019-03-11T14:02:47.965Z,100615.03
2019-03-11T14:05:16.736Z,100611.14
2019-03-11T14:07:45.735Z,100610.00
2019-03-11T14:10:15.453Z,100599.34
2019-03-11T14:12:45.047Z,100604.84
2019-03-11T14:15:18.334Z,100593.61
2019-03-11T14:17:46.966Z,100600.85
2019-03-11T14:20:16.475Z,100595.05
2019-03-11T14:22:45.392Z,100618.07
2019-03-11T14:25:14.949Z,100630.88
2019-03-11T14:27:44.049Z,100639.56
2019-03-11T14:30:17.365Z,100625.38
2019-03-11T14:32:46.441Z,100589.08
2019-03-11T14:35:15.090Z,100633.91
2019-03-11T14:37:43.768Z,100636.73
2019-03-11T14:40:15.073Z,100631.48
2019-03-11T14:42:43.766Z,100639.75
2019-03-11T14:45:17.702Z,100636.56
2019-03-11T14:47:46.564Z,100617.39
2019-03-11T14:50:16.454Z,100657.14
2019-03-11T14:52:45.520Z,100629.84
2019-03-11T14:55:14.996Z,100629.84
2019-03-11T14:57:43.736Z,100628.70
2019-03-11T15:00:22.121Z,100629.48
2019-03-11T15:02:51.056Z,100633.12
2019-03-11T15:05:20.776Z,100615.46
2019-03-11T15:07:49.452Z,100650.14
2019-03-11T15:10:22.376Z,100661.47
2019-03-11T15:12:51.806Z,100649.31
2019-03-11T15:15:24.791Z,100648.55
2019-03-11T15:17:53.474Z,100654.48
2019-03-11T15:20:22.543Z,100631.09
2019-03-11T15:22:51.174Z,100651.41
2019-03-11T15:25:21.173Z,100656.38
2019-03-11T15:27:50.263Z,100618.34
2019-03-11T15:30:23.714Z,100644.77
2019-03-11T15:32:54.704Z,100659.22
2019-03-11T15:35:23.284Z,100667.78
2019-03-11T15:37:52.527Z,100657.09
2019-03-11T15:40:21.276Z,100674.81
2019-03-11T15:42:50.290Z,100677.35
2019-03-11T15:45:19.918Z,100668.36
2019-03-11T15:47:49.244Z,100695.50
2019-03-11T15:50:32.884Z,100725.82
2019-03-11T15:53:01.864Z,100725.74
2019-03-11T15:55:36.843Z,100741.42
2019-03-11T15:58:07.579Z,100729.60
2019-03-11T16:00:36.891Z,100762.46
2019-03-11T16:03:06.018Z,100759.22
2019-03-11T16:05:35.745Z,100759.39
2019-03-11T16:08:04.464Z,100775.11
2019-03-11T16:10:33.127Z,100781.91
2019-03-11T16:13:01.796Z,100785.18
2019-03-11T16:15:31.221Z,100793.95
2019-03-11T16:18:00.325Z,100797.28
2019-03-11T16:20:29.043Z,100789.17
2019-03-11T16:22:57.641Z,100787.23
2019-03-11T16:25:26.340Z,100790.28
2019-03-11T16:27:55.378Z,100787.94
2019-03-11T16:30:26.231Z,100795.64
2019-03-11T16:33:00.285Z,100796.20
2019-03-11T16:35:27.955Z,100812.22
2019-03-11T16:37:57.182Z,100806.41
2019-03-11T16:40:26.047Z,100804.16
2019-03-11T16:42:54.850Z,100810.34
2019-03-11T16:45:23.556Z,100801.11
2019-03-11T16:47:52.380Z,100816.20
2019-03-11T16:50:24.682Z,100815.02
2019-03-11T16:52:53.628Z,100814.93
2019-03-11T16:55:27.378Z,100829.06
2019-03-11T16:57:56.246Z,100809.01
2019-03-11T17:00:41.974Z,100837.58
2019-03-11T17:03:10.901Z,100833.97
2019-03-11T17:05:39.999Z,100842.33
2019-03-11T17:08:09.004Z,100851.52
2019-03-11T17:10:37.642Z,100856.77
2019-03-11T17:13:06.949Z,100855.75
2019-03-11T17:15:35.745Z,100865.91
2019-03-11T17:18:04.771Z,100860.91
2019-03-11T17:20:33.353Z,100872.30
2019-03-11T17:23:03.176Z,100887.20
2019-03-11T17:25:32.244Z,100892.92
2019-03-11T17:28:01.704Z,100861.83
2019-03-11T17:30:30.609Z,100885.72
2019-03-11T17:32:59.202Z,100909.61
2019-03-11T17:35:27.895Z,100911.34
2019-03-11T17:37:57.069Z,100909.16
2019-03-11T17:40:26.105Z,100920.08
2019-03-11T17:42:54.859Z,100938.11
2019-03-11T17:45:23.905Z,100957.96
2019-03-11T17:47:52.916Z,100962.56
2019-03-11T17:50:24.860Z,100980.44
2019-03-11T17:52:53.581Z,100975.99
2019-03-11T17:55:22.584Z,100976.45
2019-03-11T17:57:51.478Z,100982.23
2019-03-11T18:00:25.572Z,100988.55
2019-03-11T18:02:53.811Z,100994.02
2019-03-11T18:05:25.798Z,101008.76
2019-03-11T18:07:54.441Z,101017.99
2019-03-11T18:10:23.511Z,101028.98
2019-03-11T18:12:52.144Z,101031.12
2019-03-11T18:15:20.871Z,101039.59
2019-03-11T18:17:49.496Z,101043.53
2019-03-11T18:20:21.772Z,101043.53
2019-03-11T18:22:50.846Z,101042.57
2019-03-11T18:25:21.358Z,101048.43
2019-03-11T18:27:50.410Z,101050.22
2019-03-11T18:30:30.901Z,101056.71
2019-03-11T18:33:00.725Z,101072.73
2019-03-11T18:35:29.481Z,101061.09
2019-03-11T18:38:03.976Z,101080.92
2019-03-11T18:40:29.389Z,101101.64
2019-03-11T18:42:58.555Z,101109.47
2019-03-11T18:45:27.812Z,101129.70
2019-03-11T18:47:58.647Z,101118.98
2019-03-11T18:50:27.372Z,101137.44
2019-03-11T18:52:56.450Z,101134.78
2019-03-11T18:55:25.254Z,101148.60
2019-03-11T18:57:53.885Z,101151.31
2019-03-11T19:00:23.557Z,101138.13
2019-03-11T19:02:52.392Z,101141.38
2019-03-11T19:05:25.343Z,101144.64
2019-03-11T19:07:55.484Z,101164.64
2019-03-11T19:10:24.743Z,101168.30
2019-03-11T19:12:53.374Z,101155.58
2019-03-11T19:15:23.641Z,101161.80
2019-03-11T19:17:53.235Z,101168.91
2019-03-11T19:20:25.807Z,101161.72
2019-03-11T19:22:55.159Z,101176.00
2019-03-11T19:25:24.199Z,101168.91
2019-03-11T19:27:52.985Z,101163.67
2019-03-11T19:30:25.250Z,101189.03
2019-03-11T19:32:54.557Z,101190.23
2019-03-11T19:35:24.009Z,101191.19
2019-03-11T19:37:53.513Z,101181.95
2019-03-11T19:40:25.010Z,101202.17
2019-03-11T19:42:54.330Z,101212.74
2019-03-11T19:45:23.126Z,101214.84
2019-03-11T19:47:51.903Z,101211.60
2019-03-11T19:50:21.083Z,101218.09
2019-03-11T19:52:58.490Z,101220.61
2019-03-11T19:55:20.978Z,101222.32
2019-03-11T19:57:49.816Z,101216.95
2019-03-11T20:00:20.684Z,101226.57
2019-03-11T20:02:49.515Z,101235.41
2019-03-11T20:05:24.081Z,101236.23
2019-03-11T20:07:53.360Z,101232.66
2019-03-11T20:10:22.063Z,101243.74
2019-03-11T20:12:53.329Z,101244.20
2019-03-11T20:15:22.496Z,101252.17
2019-03-11T20:17:52.272Z,101257.48
2019-03-11T20:20:21.978Z,101259.30
2019-03-11T20:22:52.257Z,101260.27
2019-03-11T20:25:34.998Z,101257.83
2019-03-11T20:28:04.127Z,101261.36
2019-03-11T20:30:33.246Z,101259.63
2019-03-11T20:33:03.909Z,101261.41
2019-03-11T20:35:34.469Z,101254.45
2019-03-11T20:38:03.211Z,101265.28
2019-03-11T20:40:32.456Z,101269.53
2019-03-11T20:43:01.599Z,101276.43
2019-03-11T20:45:30.832Z,101280.58
2019-03-11T20:47:59.697Z,101287.26
2019-03-11T20:50:37.609Z,101290.91
2019-03-11T20:52:59.615Z,101285.47
2019-03-11T20:55:28.943Z,101292.44
2019-03-11T20:57:57.844Z,101296.70
2019-03-11T21:00:28.375Z,101298.73
2019-03-11T21:02:59.904Z,101294.16
2019-03-11T21:05:35.632Z,101301.20
2019-03-11T21:08:05.402Z,101298.92
2019-03-11T21:10:37.124Z,101299.25
2019-03-11T21:13:05.949Z,101306.42
2019-03-11T21:15:34.711Z,101309.08
2019-03-11T21:18:03.656Z,101310.00
2019-03-11T21:20:32.888Z,101316.17
2019-03-11T21:23:01.621Z,101326.33
2019-03-11T21:25:31.348Z,101322.81
2019-03-11T21:28:00.683Z,101322.68
2019-03-11T21:30:29.389Z,101323.09
2019-03-11T21:32:59.738Z,101329.64
2019-03-11T21:35:29.114Z,101326.98
2019-03-11T21:37:57.823Z,101336.23
2019-03-11T21:40:26.719Z,101337.94
2019-03-11T21:42:55.586Z,101339.27
2019-03-11T21:45:33.591Z,101330.80
2019-03-11T21:47:54.726Z,101342.73
2019-03-11T21:50:30.692Z,101348.05
2019-03-11T21:52:59.314Z,101342.73
2019-03-11T21:55:28.043Z,101357.72
2019-03-11T21:57:56.868Z,101361.32
2019-03-11T22:00:34.604Z,101364.89
2019-03-11T22:02:56.466Z,101368.01
2019-03-11T22:05:25.557Z,101371.12
2019-03-11T22:07:54.478Z,101369.80
2019-03-11T22:10:23.215Z,101376.84
2019-03-11T22:12:52.372Z,101372.86
2019-03-11T22:15:25.998Z,101378.17
2019-03-11T22:17:54.670Z,101380.83
2019-03-11T22:20:23.328Z,101382.61
2019-03-11T22:22:52.096Z,101380.88
2019-03-11T22:25:21.498Z,101374.77
2019-03-11T22:27:50.335Z,101377.51
2019-03-11T22:30:25.510Z,101374.03
2019-03-11T22:32:54.175Z,101381.16
2019-03-11T22:35:22.964Z,101383.86
2019-03-11T22:37:51.719Z,101383.08
2019-03-11T22:40:20.992Z,101394.10
2019-03-11T22:42:50.389Z,101397.22
2019-03-11T22:45:22.294Z,101393.77
2019-03-11T22:47:52.488Z,101402.57
2019-03-11T22:50:21.418Z,101384.98
2019-03-11T22:52:50.265Z,101388.09
2019-03-11T22:55:20.319Z,101393.41
2019-03-11T22:57:49.115Z,101398.88
2019-03-11T23:00:31.597Z,101398.88
2019-03-11T23:03:00.402Z,101394.94
2019-03-11T23:05:29.064Z,101392.87
2019-03-11T23:07:59.644Z,101395.73
2019-03-11T23:10:28.815Z,101389.80
2019-03-11T23:12:57.427Z,101387.93
2019-03-11T23:15:26.155Z,101393.10
2019-03-11T23:17:55.096Z,101390.81
2019-03-11T23:20:23.612Z,101385.91
2019-03-11T23:22:52.265Z,101388.05
2019-03-11T23:25:21.035Z,101386.05
2019-03-11T23:27:49.640Z,101397.64
2019-03-11T23:30:18.535Z,101396.47
2019-03-11T23:32:47.723Z,101399.31
2019-03-11T23:35:16.592Z,101405.19
2019-03-11T23:37:45.302Z,101404.97
2019-03-11T23:40:14.244Z,101401.18
2019-03-11T23:42:43.158Z,101401.41
2019-03-11T23:45:12.920Z,101388.39
2019-03-11T23:47:41.503Z,101389.09
2019-03-11T23:50:12.087Z,101379.64
2019-03-11T23:52:41.021Z,101377.70
2019-03-11T23:55:10.920Z,101373.50
2019-03-11T23:57:39.919Z,101366.69
